createdAt,value
2022-08-25T00:00:02.732Z,21.13
2022-08-25T00:00:40.568Z,21.13
2022-08-25T00:01:15.135Z,21.13
2022-08-25T00:01:51.503Z,21.13
2022-08-25T00:02:24.169Z,21.13
2022-08-25T00:02:58.966Z,21.13
2022-08-25T00:03:35.925Z,21.13
2022-08-25T00:04:13.889Z,21.06
2022-08-25T00:04:53.963Z,21.06
2022-08-25T00:05:29.424Z,21.06
2022-08-25T00:06:05.798Z,21.06
2022-08-25T00:06:39.953Z,21.06
2022-08-25T00:07:12.563Z,21.06
2022-08-25T00:07:51.055Z,21.06
2022-08-25T00:08:24.533Z,21.06
2022-08-25T00:08:59.823Z,21.06
2022-08-25T00:09:35.337Z,21.06
2022-08-25T00:10:09.231Z,21.06
2022-08-25T00:10:43.102Z,21.06
2022-08-25T00:11:32.539Z,21.06
2022-08-25T00:12:06.169Z,21.00
2022-08-25T00:12:38.732Z,21.00
2022-08-25T00:13:12.641Z,21.00
2022-08-25T00:13:49.493Z,21.00
2022-08-25T00:14:24.669Z,21.00
2022-08-25T00:14:58.184Z,21.00
2022-08-25T00:15:32.829Z,21.00
2022-08-25T00:16:06.855Z,20.94
2022-08-25T00:16:40.389Z,20.94
2022-08-25T00:17:13.099Z,20.94
2022-08-25T00:17:45.574Z,20.94
2022-08-25T00:18:20.053Z,20.94
2022-08-25T00:18:55.350Z,20.88
2022-08-25T00:19:32.021Z,20.88
2022-08-25T00:20:06.054Z,20.88
2022-08-25T00:20:38.584Z,20.88
2022-08-25T00:21:17.465Z,20.88
2022-08-25T00:21:50.289Z,20.81
2022-08-25T00:22:22.785Z,20.81
2022-08-25T00:22:57.117Z,20.81
2022-08-25T00:23:29.706Z,20.81
2022-08-25T00:24:02.901Z,20.81
2022-08-25T00:24:36.671Z,20.81
2022-08-25T00:25:09.875Z,20.81
2022-08-25T00:25:43.851Z,20.81
2022-08-25T00:26:18.299Z,20.75
2022-08-25T00:26:54.121Z,20.75
2022-08-25T00:27:27.518Z,20.75
2022-08-25T00:28:04.159Z,20.75
2022-08-25T00:28:40.513Z,20.75
2022-08-25T00:29:13.457Z,20.75
2022-08-25T00:29:46.951Z,20.75
2022-08-25T00:30:19.685Z,20.75
2022-08-25T00:30:52.314Z,20.75
2022-08-25T00:31:37.845Z,20.75
2022-08-25T00:32:11.549Z,20.69
2022-08-25T00:32:55.002Z,20.69
2022-08-25T00:33:32.119Z,20.69
2022-08-25T00:34:07.445Z,20.69
2022-08-25T00:34:41.164Z,20.69
2022-08-25T00:35:13.644Z,20.69
2022-08-25T00:35:46.173Z,20.69
2022-08-25T00:36:21.503Z,20.69
2022-08-25T00:36:54.714Z,20.69
2022-08-25T00:37:28.641Z,20.69
2022-08-25T00:38:01.493Z,20.69
2022-08-25T00:38:34.123Z,20.69
2022-08-25T00:39:08.964Z,20.69
2022-08-25T00:39:41.529Z,20.69
2022-08-25T00:40:14.266Z,20.69
2022-08-25T00:41:05.741Z,20.69
2022-08-25T00:41:40.267Z,20.69
2022-08-25T00:42:16.338Z,20.69
2022-08-25T00:42:50.051Z,20.69
2022-08-25T00:43:23.223Z,20.69
2022-08-25T00:43:57.874Z,20.69
2022-08-25T00:44:34.106Z,20.69
2022-08-25T00:45:09.449Z,20.69
2022-08-25T00:45:41.964Z,20.69
2022-08-25T00:46:18.119Z,20.69
2022-08-25T00:46:54.124Z,20.69
2022-08-25T00:47:26.682Z,20.69
2022-08-25T00:48:00.263Z,20.69
2022-08-25T00:48:32.717Z,20.69
2022-08-25T00:49:08.097Z,20.69
2022-08-25T00:49:48.735Z,20.69
2022-08-25T00:50:22.762Z,20.69
2022-08-25T00:50:59.291Z,20.69
2022-08-25T00:51:38.400Z,20.69
2022-08-25T00:52:14.628Z,20.69
2022-08-25T00:52:50.942Z,20.69
2022-08-25T00:53:23.989Z,20.69
2022-08-25T00:53:58.277Z,20.69
2022-08-25T00:54:34.874Z,20.63
2022-08-25T00:55:12.565Z,20.63
2022-08-25T00:55:45.215Z,20.63
2022-08-25T00:56:21.395Z,20.63
2022-08-25T00:57:00.011Z,20.63
2022-08-25T00:57:37.633Z,20.63
2022-08-25T00:58:15.995Z,20.63
2022-08-25T00:58:49.561Z,20.63
2022-08-25T00:59:23.211Z,20.63
2022-08-25T00:59:56.041Z,20.63
2022-08-25T01:00:33.127Z,20.63
2022-08-25T01:01:05.922Z,20.63
2022-08-25T01:01:38.660Z,20.63
2022-08-25T01:02:13.848Z,20.56
2022-08-25T01:02:47.284Z,20.56
2022-08-25T01:03:20.540Z,20.56
2022-08-25T01:03:57.783Z,20.56
2022-08-25T01:04:30.513Z,20.56
2022-08-25T01:05:03.287Z,20.56
2022-08-25T01:05:37.558Z,20.56
2022-08-25T01:06:11.616Z,20.56
2022-08-25T01:06:45.231Z,20.56
2022-08-25T01:07:22.758Z,20.56
2022-08-25T01:07:59.640Z,20.56
2022-08-25T01:08:33.616Z,20.56
2022-08-25T01:09:08.127Z,20.56
2022-08-25T01:09:42.379Z,20.56
2022-08-25T01:10:15.266Z,20.56
2022-08-25T01:10:50.552Z,20.50
2022-08-25T01:11:24.973Z,20.50
2022-08-25T01:11:59.445Z,20.50
2022-08-25T01:12:32.068Z,20.50
2022-08-25T01:13:16.547Z,20.50
2022-08-25T01:13:55.967Z,20.50
2022-08-25T01:14:31.498Z,20.50
2022-08-25T01:15:06.746Z,20.50
2022-08-25T01:15:40.277Z,20.44
2022-08-25T01:16:15.502Z,20.44
2022-08-25T01:16:51.170Z,20.50
2022-08-25T01:17:33.651Z,20.50
2022-08-25T01:18:06.439Z,20.50
2022-08-25T01:18:49.046Z,20.50
2022-08-25T01:19:23.417Z,20.44
2022-08-25T01:19:55.949Z,20.44
2022-08-25T01:20:31.190Z,20.44
2022-08-25T01:21:05.250Z,20.44
2022-08-25T01:21:41.705Z,20.44
2022-08-25T01:22:14.468Z,20.44
2022-08-25T01:22:47.991Z,20.38
2022-08-25T01:23:29.149Z,20.38
2022-08-25T01:24:02.229Z,20.38
2022-08-25T01:24:39.514Z,20.38
2022-08-25T01:25:24.452Z,20.38
2022-08-25T01:26:03.704Z,20.38
2022-08-25T01:26:37.822Z,20.38
2022-08-25T01:27:10.783Z,20.38
2022-08-25T01:27:43.312Z,20.31
2022-08-25T01:28:17.253Z,20.31
2022-08-25T01:29:09.144Z,20.31
2022-08-25T01:29:41.963Z,20.31
2022-08-25T01:30:15.573Z,20.31
2022-08-25T01:30:49.399Z,20.31
2022-08-25T01:31:23.484Z,20.31
2022-08-25T01:32:00.690Z,20.38
2022-08-25T01:32:34.923Z,20.38
2022-08-25T01:33:09.381Z,20.38
2022-08-25T01:33:42.913Z,20.38
2022-08-25T01:34:16.644Z,20.38
2022-08-25T01:34:51.945Z,20.38
2022-08-25T01:35:24.654Z,20.38
2022-08-25T01:35:57.205Z,20.38
2022-08-25T01:36:31.499Z,20.38
2022-08-25T01:37:06.045Z,20.38
2022-08-25T01:37:38.587Z,20.38
2022-08-25T01:38:11.546Z,20.31
2022-08-25T01:38:45.153Z,20.31
2022-08-25T01:39:17.793Z,20.31
2022-08-25T01:39:50.356Z,20.31
2022-08-25T01:40:24.108Z,20.31
2022-08-25T01:40:56.663Z,20.31
2022-08-25T01:41:40.152Z,20.31
2022-08-25T01:42:35.507Z,20.31
2022-08-25T01:43:21.238Z,20.31
2022-08-25T01:43:53.863Z,20.31
2022-08-25T01:44:27.393Z,20.31
2022-08-25T01:45:00.001Z,20.31
2022-08-25T01:45:32.685Z,20.31
2022-08-25T01:46:06.642Z,20.31
2022-08-25T01:46:39.243Z,20.31
2022-08-25T01:47:12.373Z,20.31
2022-08-25T01:47:45.829Z,20.31
2022-08-25T01:48:19.483Z,20.31
2022-08-25T01:48:53.021Z,20.31
2022-08-25T01:49:27.015Z,20.31
2022-08-25T01:49:59.488Z,20.25
2022-08-25T01:50:32.643Z,20.25
2022-08-25T01:51:06.209Z,20.25
2022-08-25T01:51:44.412Z,20.25
2022-08-25T01:52:20.120Z,20.25
2022-08-25T01:53:00.746Z,20.19
2022-08-25T01:53:33.825Z,20.25
2022-08-25T01:54:06.465Z,20.25
2022-08-25T01:54:40.017Z,20.25
2022-08-25T01:55:12.630Z,20.25
2022-08-25T01:55:55.896Z,20.25
2022-08-25T01:56:29.545Z,20.25
2022-08-25T01:57:02.233Z,20.25
2022-08-25T01:57:34.801Z,20.25
2022-08-25T01:58:08.277Z,20.25
2022-08-25T01:58:43.961Z,20.25
2022-08-25T01:59:18.928Z,20.25
2022-08-25T01:59:56.423Z,20.25
2022-08-25T02:00:29.241Z,20.25
2022-08-25T02:01:05.075Z,20.25
2022-08-25T02:01:37.677Z,20.25
2022-08-25T02:02:10.564Z,20.19
2022-08-25T02:02:44.640Z,20.19
2022-08-25T02:03:19.001Z,20.19
2022-08-25T02:03:53.838Z,20.19
2022-08-25T02:04:29.449Z,20.13
2022-08-25T02:05:02.045Z,20.13
2022-08-25T02:05:35.705Z,20.13
2022-08-25T02:06:09.452Z,20.13
2022-08-25T02:06:43.311Z,20.13
2022-08-25T02:07:15.855Z,20.13
2022-08-25T02:07:49.338Z,20.13
2022-08-25T02:08:23.177Z,20.13
2022-08-25T02:08:58.427Z,20.13
2022-08-25T02:09:31.943Z,20.13
2022-08-25T02:10:06.650Z,20.13
2022-08-25T02:10:40.477Z,20.13
2022-08-25T02:11:15.398Z,20.13
2022-08-25T02:11:48.398Z,20.13
2022-08-25T02:12:20.929Z,20.13
2022-08-25T02:12:54.543Z,20.13
2022-08-25T02:13:31.560Z,20.13
2022-08-25T02:14:08.716Z,20.13
2022-08-25T02:14:42.171Z,20.13
2022-08-25T02:15:14.684Z,20.13
2022-08-25T02:15:50.861Z,20.13
2022-08-25T02:16:28.321Z,20.13
2022-08-25T02:17:01.047Z,20.13
2022-08-25T02:17:34.675Z,20.13
2022-08-25T02:18:08.345Z,20.13
2022-08-25T02:18:40.860Z,20.13
2022-08-25T02:19:13.495Z,20.13
2022-08-25T02:19:47.051Z,20.06
2022-08-25T02:20:19.613Z,20.06
2022-08-25T02:20:52.482Z,20.06
2022-08-25T02:21:26.043Z,20.00
2022-08-25T02:22:00.876Z,20.00
2022-08-25T02:22:33.441Z,20.00
2022-08-25T02:23:07.503Z,20.00
2022-08-25T02:23:40.199Z,20.00
2022-08-25T02:24:13.189Z,20.00
2022-08-25T02:24:46.707Z,20.00
2022-08-25T02:25:19.473Z,20.00
2022-08-25T02:25:51.917Z,20.00
2022-08-25T02:26:25.897Z,20.00
2022-08-25T02:26:59.355Z,20.00
2022-08-25T02:27:31.808Z,20.00
2022-08-25T02:28:04.825Z,20.00
2022-08-25T02:28:38.854Z,20.00
2022-08-25T02:29:11.633Z,20.00
2022-08-25T02:29:44.111Z,20.00
2022-08-25T02:30:18.822Z,20.00
2022-08-25T02:30:52.979Z,20.00
2022-08-25T02:31:31.357Z,20.00
2022-08-25T02:32:05.455Z,20.00
2022-08-25T02:32:37.988Z,20.00
2022-08-25T02:33:11.059Z,20.00
2022-08-25T02:33:45.007Z,20.00
2022-08-25T02:34:17.504Z,20.00
2022-08-25T02:34:50.235Z,20.00
2022-08-25T02:35:24.089Z,20.00
2022-08-25T02:35:58.889Z,20.00
2022-08-25T02:36:32.295Z,20.00
2022-08-25T02:37:08.223Z,20.00
2022-08-25T02:37:40.947Z,20.00
2022-08-25T02:38:13.415Z,20.00
2022-08-25T02:38:47.484Z,20.00
2022-08-25T02:39:20.062Z,20.00
2022-08-25T02:39:52.570Z,20.00
2022-08-25T02:40:26.829Z,20.00
2022-08-25T02:41:00.399Z,20.00
2022-08-25T02:41:33.618Z,20.00
2022-08-25T02:42:07.411Z,20.00
2022-08-25T02:42:40.041Z,20.00
2022-08-25T02:43:16.638Z,20.00
2022-08-25T02:43:49.676Z,20.00
2022-08-25T02:44:22.224Z,20.00
2022-08-25T02:44:56.018Z,20.00
2022-08-25T02:45:28.725Z,20.00
2022-08-25T02:46:01.483Z,20.00
2022-08-25T02:46:36.669Z,20.00
2022-08-25T02:47:09.854Z,20.00
2022-08-25T02:47:42.339Z,20.00
2022-08-25T02:48:15.915Z,20.00
2022-08-25T02:48:49.009Z,20.00
2022-08-25T02:49:22.510Z,20.00
2022-08-25T02:49:55.688Z,20.00
2022-08-25T02:50:28.134Z,20.00
2022-08-25T02:51:01.881Z,19.94
2022-08-25T02:51:36.316Z,19.94
2022-08-25T02:52:10.174Z,19.94
2022-08-25T02:52:42.700Z,19.94
2022-08-25T02:53:16.207Z,19.94
2022-08-25T02:53:49.065Z,19.88
2022-08-25T02:54:23.141Z,19.88
2022-08-25T02:54:56.608Z,19.88
2022-08-25T02:55:29.120Z,19.88
2022-08-25T02:56:02.321Z,19.88
2022-08-25T02:56:35.795Z,19.88
2022-08-25T02:57:08.643Z,19.88
2022-08-25T02:57:42.051Z,19.88
2022-08-25T02:58:15.514Z,19.88
2022-08-25T02:58:48.287Z,19.88
2022-08-25T02:59:21.042Z,19.88
2022-08-25T02:59:54.874Z,19.88
2022-08-25T03:00:27.690Z,19.81
2022-08-25T03:01:01.069Z,19.81
2022-08-25T03:01:34.735Z,19.81
2022-08-25T03:02:07.558Z,19.81
2022-08-25T03:02:41.333Z,19.81
2022-08-25T03:03:15.396Z,19.81
2022-08-25T03:03:48.852Z,19.81
2022-08-25T03:04:21.582Z,19.81
2022-08-25T03:04:55.586Z,19.75
2022-08-25T03:05:28.159Z,19.75
2022-08-25T03:06:02.054Z,19.75
2022-08-25T03:06:35.727Z,19.69
2022-08-25T03:07:09.672Z,19.69
2022-08-25T03:07:44.999Z,19.69
2022-08-25T03:08:18.611Z,19.69
2022-08-25T03:08:52.049Z,19.69
2022-08-25T03:09:24.577Z,19.69
2022-08-25T03:09:58.034Z,19.69
2022-08-25T03:10:30.733Z,19.69
2022-08-25T03:11:03.724Z,19.69
2022-08-25T03:11:38.290Z,19.75
2022-08-25T03:12:11.938Z,19.69
2022-08-25T03:12:45.443Z,19.69
2022-08-25T03:13:17.971Z,19.69
2022-08-25T03:13:52.022Z,19.69
2022-08-25T03:14:24.586Z,19.69
2022-08-25T03:14:57.022Z,19.69
2022-08-25T03:15:30.743Z,19.63
2022-08-25T03:16:04.874Z,19.63
2022-08-25T03:16:37.649Z,19.63
2022-08-25T03:17:11.420Z,19.63
2022-08-25T03:17:45.539Z,19.63
2022-08-25T03:18:18.502Z,19.56
2022-08-25T03:18:51.952Z,19.56
2022-08-25T03:19:24.759Z,19.56
2022-08-25T03:19:57.281Z,19.56
2022-08-25T03:20:30.738Z,19.56
2022-08-25T03:21:03.703Z,19.50
2022-08-25T03:21:38.585Z,19.50
2022-08-25T03:22:14.524Z,19.50
2022-08-25T03:22:54.302Z,19.50
2022-08-25T03:23:27.134Z,19.50
2022-08-25T03:24:01.225Z,19.50
2022-08-25T03:24:33.779Z,19.50
2022-08-25T03:25:25.880Z,19.50
2022-08-25T03:26:16.661Z,19.50
2022-08-25T03:26:55.810Z,19.50
2022-08-25T03:27:32.676Z,19.44
2022-08-25T03:28:06.860Z,19.44
2022-08-25T03:28:39.467Z,19.44
2022-08-25T03:29:13.917Z,19.44
2022-08-25T03:29:46.940Z,19.44
2022-08-25T03:30:19.947Z,19.38
2022-08-25T03:30:56.124Z,19.38
2022-08-25T03:31:28.928Z,19.44
2022-08-25T03:32:01.963Z,19.38
2022-08-25T03:32:35.518Z,19.38
2022-08-25T03:33:08.055Z,19.38
2022-08-25T03:33:40.739Z,19.38
2022-08-25T03:34:14.478Z,19.38
2022-08-25T03:34:46.978Z,19.38
2022-08-25T03:35:19.772Z,19.38
2022-08-25T03:35:53.210Z,19.38
2022-08-25T03:36:27.736Z,19.38
2022-08-25T03:37:00.830Z,19.44
2022-08-25T03:37:34.773Z,19.44
2022-08-25T03:38:08.267Z,19.44
2022-08-25T03:38:42.358Z,19.44
2022-08-25T03:39:17.361Z,19.44
2022-08-25T03:39:49.940Z,19.44
2022-08-25T03:40:23.349Z,19.44
2022-08-25T03:41:00.100Z,19.44
2022-08-25T03:41:37.514Z,19.44
2022-08-25T03:42:12.624Z,19.44
2022-08-25T03:42:47.436Z,19.44
2022-08-25T03:43:20.573Z,19.44
2022-08-25T03:43:53.558Z,19.44
2022-08-25T03:44:27.186Z,19.44
2022-08-25T03:45:06.364Z,19.44
2022-08-25T03:45:41.362Z,19.44
2022-08-25T03:46:22.159Z,19.38
2022-08-25T03:46:54.701Z,19.38
2022-08-25T03:47:29.455Z,19.38
2022-08-25T03:48:02.179Z,19.38
2022-08-25T03:48:34.716Z,19.38
2022-08-25T03:49:11.152Z,19.38
2022-08-25T03:49:43.632Z,19.38
2022-08-25T03:50:17.364Z,19.38
2022-08-25T03:50:54.382Z,19.38
2022-08-25T03:51:31.141Z,19.38
2022-08-25T03:52:03.986Z,19.31
2022-08-25T03:52:42.592Z,19.31
2022-08-25T03:53:15.929Z,19.31
2022-08-25T03:53:48.623Z,19.31
2022-08-25T03:54:24.237Z,19.31
2022-08-25T03:54:56.768Z,19.25
2022-08-25T03:55:31.092Z,19.25
2022-08-25T03:56:06.481Z,19.25
2022-08-25T03:56:39.758Z,19.25
2022-08-25T03:57:13.859Z,19.25
2022-08-25T03:57:46.518Z,19.19
2022-08-25T03:58:20.046Z,19.19
2022-08-25T03:58:52.791Z,19.19
2022-08-25T03:59:27.070Z,19.19
2022-08-25T04:00:00.660Z,19.19
2022-08-25T04:00:33.127Z,19.19
2022-08-25T04:01:05.856Z,19.13
2022-08-25T04:01:41.329Z,19.13
2022-08-25T04:02:15.038Z,19.13
2022-08-25T04:02:47.963Z,19.13
2022-08-25T04:03:21.549Z,19.13
2022-08-25T04:03:54.530Z,19.13
2022-08-25T04:04:27.039Z,19.13
2022-08-25T04:05:00.975Z,19.13
2022-08-25T04:05:33.625Z,19.06
2022-08-25T04:06:07.973Z,19.06
2022-08-25T04:06:41.914Z,19.06
2022-08-25T04:07:14.554Z,19.06
2022-08-25T04:07:48.534Z,19.06
2022-08-25T04:08:22.506Z,19.06
2022-08-25T04:08:55.725Z,19.06
2022-08-25T04:09:28.252Z,19.00
2022-08-25T04:10:03.921Z,19.00
2022-08-25T04:10:38.813Z,19.00
2022-08-25T04:11:13.963Z,19.00
2022-08-25T04:11:47.524Z,19.00
2022-08-25T04:12:25.858Z,19.00
2022-08-25T04:12:58.416Z,19.00
2022-08-25T04:13:30.992Z,19.00
2022-08-25T04:14:05.831Z,18.94
2022-08-25T04:14:38.303Z,18.94
2022-08-25T04:15:11.655Z,18.94
2022-08-25T04:15:45.525Z,18.94
2022-08-25T04:16:20.275Z,18.94
2022-08-25T04:16:53.396Z,18.94
2022-08-25T04:17:26.974Z,18.88
2022-08-25T04:17:59.816Z,18.88
2022-08-25T04:18:34.246Z,18.88
2022-08-25T04:19:10.326Z,18.94
2022-08-25T04:19:42.814Z,18.88
2022-08-25T04:20:16.445Z,18.94
2022-08-25T04:20:49.039Z,18.94
2022-08-25T04:21:23.686Z,18.94
2022-08-25T04:21:57.273Z,18.94
2022-08-25T04:22:31.051Z,18.94
2022-08-25T04:23:05.898Z,18.94
2022-08-25T04:23:40.618Z,18.94
2022-08-25T04:24:14.289Z,18.94
2022-08-25T04:24:46.790Z,18.94
2022-08-25T04:25:20.284Z,18.94
2022-08-25T04:25:53.000Z,18.94
2022-08-25T04:26:27.561Z,18.94
2022-08-25T04:27:01.138Z,18.94
2022-08-25T04:27:33.833Z,18.94
2022-08-25T04:28:06.856Z,18.94
2022-08-25T04:28:40.871Z,18.94
2022-08-25T04:29:17.058Z,18.94
2022-08-25T04:29:49.527Z,18.88
2022-08-25T04:30:23.268Z,18.88
2022-08-25T04:30:55.828Z,18.88
2022-08-25T04:31:30.557Z,18.88
2022-08-25T04:32:04.684Z,18.88
2022-08-25T04:32:37.607Z,18.88
2022-08-25T04:33:10.100Z,18.88
2022-08-25T04:33:44.043Z,18.88
2022-08-25T04:34:30.311Z,18.88
2022-08-25T04:35:04.380Z,18.88
2022-08-25T04:35:37.956Z,18.88
2022-08-25T04:36:12.533Z,18.88
2022-08-25T04:36:45.330Z,18.88
2022-08-25T04:37:26.110Z,18.81
2022-08-25T04:37:58.606Z,18.88
2022-08-25T04:38:32.604Z,18.81
2022-08-25T04:39:06.554Z,18.81
2022-08-25T04:39:39.208Z,18.81
2022-08-25T04:40:12.577Z,18.81
2022-08-25T04:40:46.052Z,18.81
2022-08-25T04:41:21.183Z,18.81
2022-08-25T04:41:53.790Z,18.81
2022-08-25T04:42:27.395Z,18.81
2022-08-25T04:43:00.269Z,18.81
2022-08-25T04:43:33.600Z,18.81
2022-08-25T04:44:07.458Z,18.81
2022-08-25T04:44:40.546Z,18.81
2022-08-25T04:45:13.303Z,18.81
2022-08-25T04:45:46.855Z,18.75
2022-08-25T04:46:21.081Z,18.75
2022-08-25T04:46:53.614Z,18.75
2022-08-25T04:47:27.716Z,18.75
2022-08-25T04:48:01.638Z,18.75
2022-08-25T04:48:35.155Z,18.75
2022-08-25T04:49:07.698Z,18.75
2022-08-25T04:49:41.360Z,18.75
2022-08-25T04:50:13.928Z,18.75
2022-08-25T04:50:46.451Z,18.75
2022-08-25T04:51:23.344Z,18.75
2022-08-25T04:51:57.408Z,18.75
2022-08-25T04:52:31.100Z,18.75
2022-08-25T04:53:03.597Z,18.75
2022-08-25T04:53:37.626Z,18.75
2022-08-25T04:54:16.054Z,18.75
2022-08-25T04:54:48.610Z,18.75
2022-08-25T04:55:21.053Z,18.75
2022-08-25T04:55:54.556Z,18.75
2022-08-25T04:56:27.102Z,18.75
2022-08-25T04:56:59.573Z,18.75
2022-08-25T04:57:33.052Z,18.75
2022-08-25T04:58:05.684Z,18.81
2022-08-25T04:58:47.617Z,18.81
2022-08-25T04:59:21.402Z,18.81
2022-08-25T04:59:54.219Z,18.81
2022-08-25T05:00:27.728Z,18.81
2022-08-25T05:01:03.183Z,18.81
2022-08-25T05:01:35.947Z,18.81
2022-08-25T05:02:10.312Z,18.81
2022-08-25T05:02:42.910Z,18.81
2022-08-25T05:03:15.470Z,18.81
2022-08-25T05:03:53.958Z,18.81
2022-08-25T05:04:28.766Z,18.81
2022-08-25T05:05:04.093Z,18.81
2022-08-25T05:05:37.908Z,18.88
2022-08-25T05:06:15.316Z,18.88
2022-08-25T05:06:49.749Z,18.88
2022-08-25T05:07:22.215Z,18.88
2022-08-25T05:07:55.733Z,18.88
2022-08-25T05:08:28.471Z,18.88
2022-08-25T05:09:04.358Z,18.88
2022-08-25T05:09:38.953Z,18.94
2022-08-25T05:10:11.557Z,18.94
2022-08-25T05:10:44.672Z,18.94
2022-08-25T05:11:20.100Z,18.94
2022-08-25T05:11:56.330Z,18.94
2022-08-25T05:12:29.131Z,18.94
2022-08-25T05:13:02.615Z,18.94
2022-08-25T05:13:35.789Z,19.00
2022-08-25T05:14:12.077Z,19.00
2022-08-25T05:14:45.619Z,19.00
2022-08-25T05:15:37.138Z,19.00
2022-08-25T05:16:11.442Z,19.00
2022-08-25T05:16:45.231Z,19.00
2022-08-25T05:17:17.927Z,19.00
2022-08-25T05:17:55.210Z,19.00
2022-08-25T05:18:31.877Z,19.06
2022-08-25T05:19:04.871Z,19.06
2022-08-25T05:19:37.378Z,19.06
2022-08-25T05:20:11.822Z,19.06
2022-08-25T05:20:44.318Z,19.06
2022-08-25T05:21:19.715Z,19.06
2022-08-25T05:21:53.923Z,19.13
2022-08-25T05:22:26.527Z,19.13
2022-08-25T05:22:59.177Z,19.13
2022-08-25T05:23:32.903Z,19.13
2022-08-25T05:24:07.774Z,19.13
2022-08-25T05:24:41.245Z,19.13
2022-08-25T05:25:14.699Z,19.19
2022-08-25T05:25:47.365Z,19.19
2022-08-25T05:26:22.175Z,19.19
2022-08-25T05:26:55.412Z,19.19
2022-08-25T05:27:28.824Z,19.19
2022-08-25T05:28:01.378Z,19.19
2022-08-25T05:28:34.478Z,19.19
2022-08-25T05:29:09.996Z,19.19
2022-08-25T05:29:42.527Z,19.25
2022-08-25T05:30:14.997Z,19.25
2022-08-25T05:30:50.213Z,19.25
2022-08-25T05:31:24.421Z,19.25
2022-08-25T05:31:57.051Z,19.25
2022-08-25T05:32:30.602Z,19.31
2022-08-25T05:33:03.904Z,19.31
2022-08-25T05:33:37.153Z,19.38
2022-08-25T05:34:10.817Z,19.38
2022-08-25T05:34:43.341Z,19.38
2022-08-25T05:35:16.145Z,19.38
2022-08-25T05:35:49.564Z,19.38
2022-08-25T05:36:27.345Z,19.38
2022-08-25T05:37:03.318Z,19.44
2022-08-25T05:37:35.812Z,19.44
2022-08-25T05:38:08.385Z,19.44
2022-08-25T05:38:49.266Z,19.50
2022-08-25T05:39:23.148Z,19.50
2022-08-25T05:39:59.723Z,19.50
2022-08-25T05:40:33.294Z,19.56
2022-08-25T05:41:07.689Z,19.56
2022-08-25T05:41:41.341Z,19.63
2022-08-25T05:42:13.953Z,19.63
2022-08-25T05:42:47.411Z,19.63
2022-08-25T05:43:19.932Z,19.69
2022-08-25T05:43:52.405Z,19.69
2022-08-25T05:44:25.842Z,19.69
2022-08-25T05:44:58.352Z,19.69
2022-08-25T05:45:31.827Z,19.75
2022-08-25T05:46:05.478Z,19.75
2022-08-25T05:46:38.392Z,19.75
2022-08-25T05:47:10.932Z,19.75
2022-08-25T05:47:44.591Z,19.81
2022-08-25T05:48:17.075Z,19.81
2022-08-25T05:48:50.092Z,19.81
2022-08-25T05:49:23.560Z,19.88
2022-08-25T05:49:56.201Z,19.88
2022-08-25T05:50:29.341Z,19.88
2022-08-25T05:51:05.727Z,19.94
2022-08-25T05:51:38.357Z,19.94
2022-08-25T05:52:16.386Z,19.94
2022-08-25T05:52:50.573Z,20.00
2022-08-25T05:53:23.691Z,20.00
2022-08-25T05:53:57.201Z,20.00
2022-08-25T05:54:31.681Z,20.00
2022-08-25T05:55:05.360Z,20.00
2022-08-25T05:55:38.891Z,20.06
2022-08-25T05:56:13.904Z,20.06
2022-08-25T05:56:47.468Z,20.06
2022-08-25T05:57:19.957Z,20.06
2022-08-25T05:57:52.405Z,20.06
2022-08-25T05:58:28.261Z,20.06
2022-08-25T05:59:00.731Z,20.06
2022-08-25T05:59:33.331Z,20.13
2022-08-25T06:00:08.883Z,20.13
2022-08-25T06:00:50.805Z,20.13
2022-08-25T06:01:45.263Z,20.13
2022-08-25T06:02:36.573Z,20.13
2022-08-25T06:03:09.473Z,20.19
2022-08-25T06:03:43.148Z,20.19
2022-08-25T06:04:17.686Z,20.19
2022-08-25T06:04:51.251Z,20.19
2022-08-25T06:05:24.153Z,20.25
2022-08-25T06:06:07.282Z,20.25
2022-08-25T06:06:41.560Z,20.25
2022-08-25T06:07:14.007Z,20.31
2022-08-25T06:07:47.368Z,20.31
2022-08-25T06:08:20.877Z,20.31
2022-08-25T06:08:53.442Z,20.38
2022-08-25T06:09:26.453Z,20.38
2022-08-25T06:10:01.270Z,20.38
2022-08-25T06:10:34.597Z,20.38
2022-08-25T06:11:08.381Z,20.44
2022-08-25T06:11:41.275Z,20.44
2022-08-25T06:12:15.048Z,20.44
2022-08-25T06:12:48.310Z,20.44
2022-08-25T06:13:28.820Z,20.50
2022-08-25T06:14:01.567Z,20.50
2022-08-25T06:14:34.091Z,20.56
2022-08-25T06:15:08.420Z,20.56
2022-08-25T06:15:40.981Z,20.56
2022-08-25T06:16:14.640Z,20.56
2022-08-25T06:16:48.806Z,20.63
2022-08-25T06:17:22.655Z,20.63
2022-08-25T06:18:01.647Z,20.63
2022-08-25T06:18:35.783Z,20.69
2022-08-25T06:19:09.914Z,20.69
2022-08-25T06:19:43.431Z,20.69
2022-08-25T06:20:18.312Z,20.69
2022-08-25T06:20:53.445Z,20.75
2022-08-25T06:21:26.030Z,20.75
2022-08-25T06:22:00.196Z,20.75
2022-08-25T06:22:32.745Z,20.81
2022-08-25T06:23:05.321Z,20.81
2022-08-25T06:23:39.428Z,20.81
2022-08-25T06:24:15.374Z,20.81
2022-08-25T06:24:48.427Z,20.88
2022-08-25T06:25:24.966Z,20.88
2022-08-25T06:25:57.468Z,20.88
2022-08-25T06:26:29.976Z,20.94
2022-08-25T06:27:04.332Z,20.94
2022-08-25T06:27:37.542Z,20.94
2022-08-25T06:28:09.999Z,21.00
2022-08-25T06:28:44.181Z,21.00
2022-08-25T06:29:17.019Z,21.00
2022-08-25T06:29:49.634Z,21.06
2022-08-25T06:30:29.191Z,21.06
2022-08-25T06:31:03.433Z,21.06
2022-08-25T06:31:36.083Z,21.06
2022-08-25T06:32:09.881Z,21.13
2022-08-25T06:32:44.491Z,21.13
2022-08-25T06:33:17.984Z,21.13
2022-08-25T06:33:51.568Z,21.13
2022-08-25T06:34:25.026Z,21.13
2022-08-25T06:34:58.737Z,21.13
2022-08-25T06:35:32.293Z,21.19
2022-08-25T06:36:08.674Z,21.19
2022-08-25T06:36:41.493Z,21.19
2022-08-25T06:37:15.060Z,21.19
2022-08-25T06:37:47.621Z,21.25
2022-08-25T06:38:20.134Z,21.25
2022-08-25T06:38:54.568Z,21.25
2022-08-25T06:39:27.101Z,21.25
2022-08-25T06:39:59.628Z,21.31
2022-08-25T06:40:34.598Z,21.31
2022-08-25T06:41:08.642Z,21.31
2022-08-25T06:41:41.118Z,21.38
2022-08-25T06:42:14.611Z,21.38
2022-08-25T06:42:49.110Z,21.38
2022-08-25T06:43:22.056Z,21.44
2022-08-25T06:43:56.030Z,21.44
2022-08-25T06:44:37.568Z,21.50
2022-08-25T06:45:10.533Z,21.50
2022-08-25T06:45:44.089Z,21.50
2022-08-25T06:46:19.715Z,21.56
2022-08-25T06:46:53.329Z,21.56
2022-08-25T06:47:25.873Z,21.56
2022-08-25T06:47:59.348Z,21.63
2022-08-25T06:48:34.376Z,21.63
2022-08-25T06:49:08.102Z,21.69
2022-08-25T06:49:42.512Z,21.69
2022-08-25T06:50:15.080Z,21.69
2022-08-25T06:50:47.914Z,21.75
2022-08-25T06:51:22.602Z,21.75
2022-08-25T06:51:55.041Z,21.75
2022-08-25T06:52:29.229Z,21.81
2022-08-25T06:53:03.473Z,21.81
2022-08-25T06:53:36.159Z,21.88
2022-08-25T06:54:10.042Z,21.88
2022-08-25T06:54:43.700Z,21.88
2022-08-25T06:55:19.902Z,21.94
2022-08-25T06:56:03.379Z,21.94
2022-08-25T06:56:40.808Z,22.00
2022-08-25T06:57:14.976Z,22.00
2022-08-25T06:57:47.476Z,22.00
2022-08-25T06:58:19.942Z,22.06
2022-08-25T06:58:53.443Z,22.06
2022-08-25T06:59:26.593Z,22.06
2022-08-25T07:00:07.508Z,22.06
2022-08-25T07:00:40.078Z,22.13
2022-08-25T07:01:19.969Z,22.13
2022-08-25T07:01:54.166Z,22.13
2022-08-25T07:02:26.919Z,22.19
2022-08-25T07:03:01.123Z,22.19
2022-08-25T07:03:34.796Z,22.19
2022-08-25T07:04:12.761Z,22.25
2022-08-25T07:04:47.225Z,22.25
2022-08-25T07:05:27.383Z,22.25
2022-08-25T07:06:08.334Z,22.31
2022-08-25T07:06:41.249Z,22.31
2022-08-25T07:07:14.751Z,22.38
2022-08-25T07:07:47.432Z,22.38
2022-08-25T07:08:20.298Z,22.44
2022-08-25T07:08:54.293Z,22.44
2022-08-25T07:09:26.766Z,22.44
2022-08-25T07:09:59.479Z,22.50
2022-08-25T07:10:32.940Z,22.50
2022-08-25T07:11:16.284Z,22.50
2022-08-25T07:11:50.219Z,22.56
2022-08-25T07:12:24.622Z,22.56
2022-08-25T07:12:58.046Z,22.63
2022-08-25T07:13:32.130Z,22.63
2022-08-25T07:14:06.815Z,22.63
2022-08-25T07:14:40.316Z,22.69
2022-08-25T07:15:26.030Z,22.69
2022-08-25T07:15:58.955Z,22.69
2022-08-25T07:16:33.044Z,22.75
2022-08-25T07:17:10.482Z,22.75
2022-08-25T07:17:46.047Z,22.81
2022-08-25T07:18:19.675Z,22.81
2022-08-25T07:18:56.356Z,22.81
2022-08-25T07:19:30.158Z,22.88
2022-08-25T07:20:03.923Z,22.94
2022-08-25T07:20:38.054Z,22.94
2022-08-25T07:21:11.062Z,23.00
2022-08-25T07:21:45.791Z,23.00
2022-08-25T07:22:19.396Z,23.06
2022-08-25T07:22:53.057Z,23.13
2022-08-25T07:23:27.389Z,23.13